Terminal Aerodrome Forecast
Issued by NWS New Orleans/Baton Rouge, LA

Home | Current Version | Previous Version | Text Only | Print | Product List | Glossary On
Versions: 1 2 3 4 5 6 7 8 9 10 11 12 13 14 15 16 17 18 19 20 21 22 23 24 25 26 27 28 29
000
FTUS44 KLIX 262300
TAFNEW
TAF
KNEW 262335Z 2700/2724 23015KT P6SM SKC
     FM270400 28016KT P6SM SKC
     FM270800 32018KT P6SM SKC
     FM271300 36017KT P6SM SKC
     FM272100 36011KT P6SM SKC=

USA.gov is the U.S. government's official web portal to all federal, state and local government web resources and services.